Time;durP1;ratioP1;P1;durP2;ratioP2;P2;SDS_P1;SDS_P2;PMS_P1;PMS_P2;Temp;Humidity;BMP_temperature;BMP_pressure;BME280_temperature;BME280_humidity;BME280_pressure;Samples;Min_cycle;Max_cycle;Signal;HPM_P1;HPM_P2
2022/08/15 00:00:35;;;;;;;20.58;16.90;;;21.70;99.90;;;;;;5089056;28;20632;-73
2022/08/15 00:03:02;;;;;;;19.05;16.95;;;21.70;99.90;;;;;;5088979;28;20496;-73
2022/08/15 00:05:33;;;;;;;17.98;15.77;;;21.70;99.90;;;;;;5089961;28;20404;-73
2022/08/15 00:07:59;;;;;;;17.65;15.85;;;21.70;99.90;;;;;;5087387;28;20043;-73
2022/08/15 00:10:25;;;;;;;18.55;16.20;;;21.70;99.90;;;;;;5089473;28;20047;-73
2022/08/15 00:12:50;;;;;;;17.23;15.63;;;21.70;99.90;;;;;;5087399;28;20048;-74
2022/08/15 00:15:19;;;;;;;19.83;16.35;;;21.70;99.90;;;;;;5084060;28;20051;-73
2022/08/15 00:17:47;;;;;;;20.80;17.02;;;21.70;99.90;;;;;;5089202;28;20139;-74
2022/08/15 00:20:13;;;;;;;20.23;17.67;;;21.70;99.90;;;;;;5087174;28;20043;-73
2022/08/15 00:22:48;;;;;;;20.92;18.73;;;21.70;99.90;;;;;;5088921;28;20043;-73
2022/08/15 00:25:16;;;;;;;17.85;15.57;;;21.70;99.90;;;;;;5089371;28;20126;-73
2022/08/15 00:27:42;;;;;;;20.08;17.95;;;21.60;99.90;;;;;;5088841;28;20861;-73
2022/08/15 00:30:10;;;;;;;22.25;19.15;;;21.60;99.90;;;;;;5086638;28;20043;-73
2022/08/15 00:32:36;;;;;;;18.90;15.90;;;21.50;99.90;;;;;;5088236;28;20128;-73
2022/08/15 00:35:35;;;;;;;18.05;15.15;;;21.40;99.90;;;;;;5089021;28;20090;-73
2022/08/15 00:37:55;;;;;;;16.73;15.00;;;21.30;99.90;;;;;;5087654;28;20062;-73
2022/08/15 00:40:22;;;;;;;21.70;15.15;;;21.10;99.90;;;;;;5072123;28;20539;-73
2022/08/15 00:42:48;;;;;;;23.73;15.70;;;21.10;99.90;;;;;;5089206;28;20139;-73
2022/08/15 00:45:14;;;;;;;20.65;16.98;;;21.00;99.90;;;;;;5084906;28;20172;-73
2022/08/15 00:47:41;;;;;;;21.15;19.00;;;20.90;99.90;;;;;;5085172;28;20052;-73
2022/08/15 00:50:14;;;;;;;19.83;17.92;;;20.90;99.90;;;;;;5088354;28;20043;-73
2022/08/15 00:52:39;;;;;;;24.08;17.55;;;20.90;99.90;;;;;;5088293;28;20036;-73
2022/08/15 00:55:13;;;;;;;19.23;17.33;;;21.00;99.90;;;;;;5085393;28;20040;-73
2022/08/15 00:57:46;;;;;;;20.88;17.77;;;20.90;99.90;;;;;;5083413;28;20047;-74
2022/08/15 01:00:18;;;;;;;29.52;18.10;;;20.90;99.90;;;;;;5088342;28;20051;-73
2022/08/15 01:02:45;;;;;;;20.30;18.17;;;20.90;99.90;;;;;;5088774;28;20048;-74
2022/08/15 01:05:14;;;;;;;21.15;18.60;;;20.90;99.90;;;;;;5088683;28;20086;-73
2022/08/15 01:07:41;;;;;;;24.92;18.40;;;21.00;99.90;;;;;;5105903;28;20043;-73
2022/08/15 01:10:08;;;;;;;21.88;19.60;;;20.90;99.90;;;;;;5086238;28;20047;-73
2022/08/15 01:12:36;;;;;;;33.35;21.23;;;20.90;99.90;;;;;;5093453;28;20112;-73
2022/08/15 01:15:08;;;;;;;29.50;22.02;;;20.90;99.90;;;;;;5090921;28;20078;-73
2022/08/15 01:17:34;;;;;;;22.40;20.00;;;20.70;99.90;;;;;;5092954;28;20078;-73
2022/08/15 01:20:12;;;;;;;24.58;20.48;;;20.70;99.90;;;;;;5092392;28;20047;-73
2022/08/15 01:22:47;;;;;;;24.55;20.23;;;20.70;99.90;;;;;;5090979;28;20046;-73
2022/08/15 01:25:19;;;;;;;22.90;18.58;;;20.60;99.90;;;;;;5091604;28;20650;-73
2022/08/15 01:28:00;;;;;;;21.25;19.02;;;20.70;99.90;;;;;;5083014;28;20067;-73
2022/08/15 01:30:34;;;;;;;22.08;19.63;;;20.70;99.90;;;;;;5079669;28;20479;-73
2022/08/15 01:33:01;;;;;;;25.70;19.67;;;20.80;99.90;;;;;;5084609;28;20427;-73
2022/08/15 01:35:28;;;;;;;24.33;20.60;;;20.80;99.90;;;;;;5089484;28;20125;-73
2022/08/15 01:37:55;;;;;;;22.20;19.23;;;20.80;99.90;;;;;;5073071;28;20048;-73
2022/08/15 01:40:34;;;;;;;20.10;18.02;;;20.80;99.90;;;;;;5085874;28;20052;-73
2022/08/15 01:43:02;;;;;;;22.77;18.30;;;20.80;99.90;;;;;;5091634;28;20083;-73
2022/08/15 01:45:32;;;;;;;21.25;19.10;;;20.80;99.90;;;;;;5091594;28;20052;-73
2022/08/15 01:48:02;;;;;;;28.20;17.95;;;20.80;99.90;;;;;;5091919;28;20132;-74
2022/08/15 01:50:30;;;;;;;21.25;19.23;;;20.80;99.90;;;;;;5091893;28;20132;-73
2022/08/15 01:53:17;;;;;;;22.95;19.23;;;20.80;99.90;;;;;;5091345;28;20044;-73
2022/08/15 01:55:49;;;;;;;20.35;18.15;;;20.80;99.90;;;;;;5089259;28;20540;-73
2022/08/15 01:58:15;;;;;;;20.58;18.38;;;20.80;99.90;;;;;;5085971;28;20078;-73
2022/08/15 02:00:55;;;;;;;22.35;19.48;;;20.80;99.90;;;;;;5081185;28;20056;-73
2022/08/15 02:03:33;;;;;;;20.45;18.35;;;20.80;99.90;;;;;;5091545;27;20047;-73
2022/08/15 02:06:22;;;;;;;27.42;20.38;;;20.80;99.90;;;;;;5091239;28;20052;-73
2022/08/15 02:08:47;;;;;;;24.77;20.70;;;20.80;99.90;;;;;;5086187;28;20512;-73
2022/08/15 02:11:17;;;;;;;28.02;21.25;;;20.70;99.90;;;;;;5084737;28;20039;-73
2022/08/15 02:13:48;;;;;;;22.63;19.20;;;20.80;99.90;;;;;;5086925;28;20063;-73
2022/08/15 02:16:16;;;;;;;23.98;21.25;;;20.70;99.90;;;;;;5079916;28;20184;-73
2022/08/15 02:18:42;;;;;;;22.98;20.42;;;20.70;99.90;;;;;;5090230;28;20047;-73
2022/08/15 02:21:08;;;;;;;22.50;20.20;;;20.70;99.90;;;;;;5090649;28;20054;-73
2022/08/15 02:23:35;;;;;;;23.75;21.05;;;20.80;99.90;;;;;;5090938;28;20048;-73
2022/08/15 02:26:02;;;;;;;21.17;18.05;;;20.70;99.90;;;;;;5087971;28;20040;-73
2022/08/15 02:28:28;;;;;;;27.17;22.95;;;20.80;99.90;;;;;;5091012;28;20055;-74
2022/08/15 02:30:54;;;;;;;23.15;20.65;;;20.80;99.90;;;;;;5079664;28;20095;-74
2022/08/15 02:33:21;;;;;;;24.70;20.70;;;20.80;99.90;;;;;;5091090;28;20035;-73
2022/08/15 02:35:48;;;;;;;22.13;19.77;;;20.70;99.90;;;;;;5096210;28;20516;-73
2022/08/15 02:38:14;;;;;;;24.63;22.05;;;20.70;99.90;;;;;;5091671;28;20039;-73
2022/08/15 02:40:40;;;;;;;23.52;20.95;;;20.70;99.90;;;;;;5090604;28;20055;-74
2022/08/15 02:43:08;;;;;;;24.30;21.67;;;20.70;99.90;;;;;;5089456;28;20042;-73
2022/08/15 02:45:38;;;;;;;33.28;19.95;;;20.70;99.90;;;;;;5101371;28;20502;-73
2022/08/15 02:48:10;;;;;;;24.15;20.83;;;20.70;99.90;;;;;;5089097;28;20906;-73
2022/08/15 02:50:38;;;;;;;23.40;20.73;;;20.70;99.90;;;;;;5084823;28;20401;-73
2022/08/15 02:53:16;;;;;;;22.95;20.65;;;20.70;99.90;;;;;;5082497;28;20067;-73
2022/08/15 02:55:44;;;;;;;;;;;20.70;99.90;;;;;;5090956;28;20104;-73
2022/08/15 02:58:11;;;;;;;23.02;18.63;;;20.70;99.90;;;;;;5090945;28;19959;-73
2022/08/15 03:00:39;;;;;;;21.83;19.40;;;20.70;99.90;;;;;;5089489;28;20052;-73
2022/08/15 03:03:08;;;;;;;21.92;19.10;;;20.60;99.90;;;;;;5091549;28;20071;-73
2022/08/15 03:05:37;;;;;;;24.73;20.02;;;20.60;99.90;;;;;;5106117;28;20044;-73
2022/08/15 03:08:04;;;;;;;22.65;19.85;;;20.60;99.90;;;;;;5090171;28;20040;-73
2022/08/15 03:10:29;;;;;;;23.70;19.50;;;20.60;99.90;;;;;;5089800;28;20495;-74
2022/08/15 03:13:02;;;;;;;22.25;20.05;;;20.60;99.90;;;;;;5082663;28;20127;-73
2022/08/15 03:15:57;;;;;;;28.80;20.17;;;20.60;99.90;;;;;;5079675;28;20052;-73
2022/08/15 03:18:26;;;;;;;26.38;22.48;;;20.50;99.90;;;;;;5075392;28;20047;-73
2022/08/15 03:20:52;;;;;;;22.50;20.05;;;20.50;99.90;;;;;;5090201;28;20149;-73
2022/08/15 03:23:19;;;;;;;27.65;20.30;;;20.50;99.90;;;;;;5085200;28;20048;-73
2022/08/15 03:25:48;;;;;;;23.73;21.13;;;20.50;99.90;;;;;;5082684;28;20079;-73
2022/08/15 03:28:19;;;;;;;24.00;21.42;;;20.40;99.90;;;;;;5089664;28;20046;-73
2022/08/15 03:30:45;;;;;;;23.95;21.45;;;20.40;99.90;;;;;;5083144;28;20078;-73
2022/08/15 03:33:11;;;;;;;25.95;21.60;;;20.40;99.90;;;;;;5087293;28;20094;-73
2022/08/15 03:35:40;;;;;;;26.20;23.40;;;20.30;99.90;;;;;;5078760;28;20040;-73
2022/08/15 03:38:06;;;;;;;27.75;22.35;;;20.20;99.90;;;;;;5078212;28;20100;-73
2022/08/15 03:40:33;;;;;;;25.02;21.35;;;20.20;99.90;;;;;;5090178;28;20047;-73
2022/08/15 03:43:07;;;;;;;23.85;19.83;;;20.10;99.90;;;;;;5083841;28;20050;-73
2022/08/15 03:45:33;;;;;;;24.60;20.23;;;20.00;99.90;;;;;;5089820;28;20050;-73
2022/08/15 03:48:01;;;;;;;22.58;20.10;;;19.90;99.90;;;;;;5087389;28;20070;-73
2022/08/15 03:50:28;;;;;;;22.02;19.67;;;19.80;99.90;;;;;;5089533;28;20084;-73
2022/08/15 03:52:58;;;;;;;25.13;22.47;;;19.90;99.90;;;;;;5083885;28;20047;-73
2022/08/15 03:55:25;;;;;;;23.05;20.33;;;19.80;99.90;;;;;;5088758;28;20096;-75
2022/08/15 03:57:52;;;;;;;25.90;20.98;;;19.90;99.90;;;;;;5096036;28;20134;-76
2022/08/15 04:00:22;;;;;;;28.50;23.73;;;19.90;99.90;;;;;;5090739;28;20069;-76
2022/08/15 04:02:47;;;;;;;25.70;21.23;;;19.90;99.90;;;;;;5081800;28;20051;-76
2022/08/15 04:05:16;;;;;;;25.08;22.00;;;19.90;99.90;;;;;;5087669;28;20046;-76
2022/08/15 04:07:42;;;;;;;25.52;21.50;;;19.90;99.90;;;;;;5091960;28;20524;-76
2022/08/15 04:10:12;;;;;;;28.65;23.73;;;19.90;99.90;;;;;;5089701;28;20085;-75
2022/08/15 04:12:41;;;;;;;29.77;24.10;;;19.90;99.90;;;;;;5089134;28;20119;-76
2022/08/15 04:15:10;;;;;;;25.30;22.77;;;19.70;99.90;;;;;;5088119;28;20563;-76
2022/08/15 04:17:35;;;;;;;24.38;21.88;;;19.60;99.90;;;;;;5090787;28;20071;-76
2022/08/15 04:20:01;;;;;;;25.52;22.60;;;19.60;99.90;;;;;;5091916;28;20083;-76
2022/08/15 04:22:41;;;;;;;26.40;22.75;;;19.60;99.90;;;;;;5090405;28;20122;-76
2022/08/15 04:25:27;;;;;;;34.38;23.98;;;19.60;99.90;;;;;;5105972;28;20055;-76
2022/08/15 04:27:56;;;;;;;25.23;22.55;;;19.70;99.90;;;;;;5080570;28;20050;-76
2022/08/15 04:30:24;;;;;;;23.67;21.15;;;19.70;99.90;;;;;;5080693;28;20047;-77
2022/08/15 04:32:52;;;;;;;26.63;23.83;;;19.70;99.90;;;;;;5088592;28;20040;-76
2022/08/15 04:35:18;;;;;;;;;;;19.70;99.90;;;;;;5090333;28;20047;-77
2022/08/15 04:37:43;;;;;;;25.50;21.48;;;19.70;99.90;;;;;;5088923;28;19946;-76
2022/08/15 04:40:14;;;;;;;24.17;21.67;;;19.70;99.90;;;;;;5088636;28;20052;-77
2022/08/15 04:42:47;;;;;;;23.45;20.95;;;19.70;99.90;;;;;;5087213;28;20127;-77
2022/08/15 04:45:13;;;;;;;24.38;21.23;;;19.70;99.90;;;;;;5094044;28;20048;-76
2022/08/15 04:47:39;;;;;;;29.63;25.67;;;19.70;99.90;;;;;;5090774;28;20415;-74
2022/08/15 04:50:05;;;;;;;30.85;24.58;;;19.70;99.90;;;;;;5108402;27;20040;-75
2022/08/15 04:52:32;;;;;;;31.08;23.75;;;19.60;99.90;;;;;;5093267;28;20947;-76
2022/08/15 04:54:58;;;;;;;25.67;23.08;;;19.50;99.90;;;;;;5091695;28;20571;-76
2022/08/15 04:57:24;;;;;;;31.63;22.98;;;19.50;99.90;;;;;;5092337;28;20050;-76
2022/08/15 04:59:50;;;;;;;31.52;25.13;;;19.50;99.90;;;;;;5086323;28;20059;-76
2022/08/15 05:02:23;;;;;;;30.60;27.33;;;19.50;99.90;;;;;;5087656;28;20051;-76
2022/08/15 05:04:49;;;;;;;29.65;26.25;;;19.50;99.90;;;;;;5093047;28;20056;-76
2022/08/15 05:07:14;;;;;;;29.58;26.33;;;19.50;99.90;;;;;;5085562;28;20050;-76
2022/08/15 05:09:40;;;;;;;35.75;31.30;;;19.50;99.90;;;;;;5092338;28;20429;-76
2022/08/15 05:12:06;;;;;;;36.75;32.28;;;19.60;99.90;;;;;;5085877;28;20491;-76
2022/08/15 05:14:31;;;;;;;34.88;31.15;;;19.70;99.90;;;;;;5091443;28;20058;-76
2022/08/15 05:16:57;;;;;;;40.67;36.30;;;19.70;99.90;;;;;;5092667;28;20047;-73
2022/08/15 05:19:23;;;;;;;42.65;35.70;;;19.70;99.90;;;;;;5086898;28;20036;-73
2022/08/15 05:21:49;;;;;;;52.72;34.83;;;19.80;99.90;;;;;;5092272;28;20051;-73
2022/08/15 05:24:15;;;;;;;40.75;34.75;;;19.80;99.90;;;;;;5102629;28;20044;-74
2022/08/15 05:26:41;;;;;;;39.85;34.60;;;19.80;99.90;;;;;;5090217;28;20540;-73
2022/08/15 05:29:06;;;;;;;40.55;34.35;;;19.70;99.90;;;;;;5090626;28;20040;-73
2022/08/15 05:31:33;;;;;;;43.25;36.90;;;19.70;99.90;;;;;;5092491;28;20043;-73
2022/08/15 05:34:00;;;;;;;49.08;38.10;;;19.80;99.90;;;;;;5092648;28;20084;-76
2022/08/15 05:36:26;;;;;;;44.63;36.30;;;19.90;99.90;;;;;;5085414;28;20137;-72
2022/08/15 05:38:58;;;;;;;47.33;38.55;;;19.90;99.90;;;;;;5087786;28;20108;-73
2022/08/15 05:41:43;;;;;;;46.83;40.05;;;20.00;99.90;;;;;;5090908;28;20040;-73
2022/08/15 05:44:19;;;;;;;42.83;36.70;;;20.00;99.90;;;;;;5070899;28;20040;-73
2022/08/15 05:47:04;;;;;;;46.75;41.35;;;20.00;99.90;;;;;;5088945;28;20129;-73
2022/08/15 05:49:45;;;;;;;49.58;41.97;;;20.10;99.90;;;;;;5077140;28;20548;-74
2022/08/15 05:52:34;;;;;;;54.03;43.97;;;20.10;99.90;;;;;;5089660;28;20054;-73
2022/08/15 05:55:18;;;;;;;51.90;42.15;;;20.10;99.90;;;;;;5089677;28;20477;-73
2022/08/15 05:58:00;;;;;;;49.30;40.40;;;20.10;99.90;;;;;;5084306;28;20438;-74
2022/08/15 06:00:27;;;;;;;47.20;37.50;;;20.20;99.90;;;;;;5082384;28;20397;-74
2022/08/15 06:03:11;;;;;;;46.83;39.63;;;20.20;99.90;;;;;;5090245;28;20071;-75
2022/08/15 06:05:45;;;;;;;41.58;35.85;;;20.30;99.90;;;;;;5091256;28;21161;-74
2022/08/15 06:08:15;;;;;;;48.08;35.35;;;20.30;99.90;;;;;;5075088;28;20047;-74
2022/08/15 06:11:01;;;;;;;41.20;33.08;;;20.40;99.90;;;;;;5090439;28;20054;-74
2022/08/15 06:13:34;;;;;;;36.13;32.05;;;20.50;99.90;;;;;;5091125;28;20054;-74
2022/08/15 06:16:25;;;;;;;34.65;30.85;;;20.50;99.90;;;;;;5091373;28;20048;-74
2022/08/15 06:18:53;;;;;;;40.75;35.20;;;20.60;99.90;;;;;;5084767;28;20085;-74
2022/08/15 06:21:36;;;;;;;41.38;35.38;;;20.70;99.90;;;;;;5088893;28;20044;-74
2022/08/15 06:24:55;;;;;;;42.58;34.90;;;20.70;99.90;;;;;;5063055;28;20043;-74
2022/08/15 06:27:29;;;;;;;40.53;36.28;;;20.80;99.90;;;;;;5025425;28;20069;-74
2022/08/15 06:30:09;;;;;;;48.10;37.10;;;20.80;99.90;;;;;;5072919;28;20398;-74
2022/08/15 06:32:46;;;;;;;44.85;35.42;;;20.90;99.90;;;;;;5086514;28;20071;-74
2022/08/15 06:35:34;;;;;;;45.85;36.53;;;21.00;99.90;;;;;;5075166;28;20079;-75
2022/08/15 06:38:31;;;;;;;41.50;36.78;;;21.00;99.90;;;;;;5083950;28;20138;-75
2022/08/15 06:41:21;;;;;;;42.60;35.08;;;21.10;99.90;;;;;;5102397;27;20567;-74
2022/08/15 06:43:48;;;;;;;37.50;30.60;;;21.20;99.90;;;;;;5088338;28;20055;-75
2022/08/15 06:46:14;;;;;;;36.70;29.42;;;21.20;99.90;;;;;;5090947;28;20047;-74
2022/08/15 06:48:42;;;;;;;42.65;32.88;;;21.30;99.90;;;;;;5089467;28;20139;-76
2022/08/15 06:51:09;;;;;;;;;;;21.40;99.90;;;;;;5083345;28;20090;-74
2022/08/15 06:53:38;;;;;;;30.13;27.10;;;21.40;99.90;;;;;;5082779;28;20042;-74
2022/08/15 06:56:21;;;;;;;32.47;27.48;;;21.40;99.90;;;;;;5091185;28;20039;-74
2022/08/15 06:59:02;;;;;;;34.42;27.58;;;21.50;99.90;;;;;;5084593;28;20602;-75
2022/08/15 07:02:05;;;;;;;29.27;26.17;;;21.60;99.90;;;;;;5075266;28;20047;-74
2022/08/15 07:04:53;;;;;;;34.28;27.83;;;21.60;99.90;;;;;;5098479;28;20040;-74
2022/08/15 07:07:51;;;;;;;34.47;28.02;;;21.70;99.90;;;;;;5085358;28;20054;-74
2022/08/15 07:10:44;;;;;;;36.08;29.45;;;21.80;99.90;;;;;;5086272;28;20100;-74
2022/08/15 07:13:25;;;;;;;33.75;29.92;;;21.90;99.90;;;;;;5083337;28;20040;-74
2022/08/15 07:16:13;;;;;;;36.50;31.67;;;21.90;99.90;;;;;;5101396;28;20040;-74
2022/08/15 07:18:42;;;;;;;;;;;22.00;99.90;;;;;;5081375;28;20170;-74
2022/08/15 07:21:11;;;;;;;33.50;27.77;;;22.00;99.90;;;;;;5072685;28;19924;-74
2022/08/15 07:24:06;;;;;;;34.28;29.58;;;22.10;99.90;;;;;;5076851;28;20490;-75
2022/08/15 07:26:40;;;;;;;32.25;27.33;;;22.10;99.90;;;;;;5086667;28;20089;-78
2022/08/15 07:29:32;;;;;;;34.72;27.35;;;22.20;99.90;;;;;;5074769;28;20825;-77
2022/08/15 07:32:11;;;;;;;30.75;27.45;;;22.30;99.90;;;;;;5068322;28;20114;-76
2022/08/15 07:35:04;;;;;;;27.90;24.83;;;22.30;99.90;;;;;;5083794;28;20040;-76
2022/08/15 07:37:37;;;;;;;39.30;26.90;;;22.40;99.90;;;;;;5074674;28;20399;-76
2022/08/15 07:40:17;;;;;;;30.00;26.52;;;22.50;99.90;;;;;;5085694;28;20051;-76
2022/08/15 07:42:45;;;;;;;31.15;25.73;;;22.60;99.90;;;;;;5081491;28;20527;-76
2022/08/15 07:45:20;;;;;;;33.17;24.98;;;22.70;99.90;;;;;;5103880;28;20118;-76
2022/08/15 07:48:17;;;;;;;31.40;25.95;;;22.80;99.90;;;;;;5086137;28;20044;-75
2022/08/15 07:50:44;;;;;;;25.90;23.23;;;22.90;99.90;;;;;;5085753;28;20119;-76
2022/08/15 07:53:18;;;;;;;23.60;20.58;;;23.10;99.90;;;;;;5072168;28;20175;-75
2022/08/15 07:56:13;;;;;;;23.83;21.48;;;23.20;99.90;;;;;;5086433;28;20127;-74
2022/08/15 07:58:41;;;;;;;25.92;23.15;;;23.30;99.90;;;;;;5081810;28;20052;-75
2022/08/15 08:01:35;;;;;;;28.77;23.45;;;23.50;99.90;;;;;;5083377;28;20052;-75
2022/08/15 08:04:21;;;;;;;25.63;22.95;;;23.70;99.90;;;;;;5068399;28;20083;-75
2022/08/15 08:06:55;;;;;;;34.13;24.77;;;23.80;99.90;;;;;;5084951;28;20052;-75
2022/08/15 08:09:44;;;;;;;24.40;21.48;;;24.00;99.90;;;;;;5075053;28;20091;-76
2022/08/15 08:12:38;;;;;;;23.73;20.77;;;24.10;99.90;;;;;;5082442;28;20093;-75
2022/08/15 08:15:26;;;;;;;24.00;20.42;;;24.20;99.90;;;;;;5067327;28;20067;-75
2022/08/15 08:18:05;;;;;;;21.45;19.20;;;24.20;99.90;;;;;;5085621;28;20060;-75
2022/08/15 08:20:55;;;;;;;22.63;18.88;;;24.20;99.90;;;;;;5088850;28;20067;-75
2022/08/15 08:23:33;;;;;;;21.02;19.00;;;24.40;99.90;;;;;;5081685;28;20040;-75
2022/08/15 08:26:23;;;;;;;21.42;19.35;;;24.50;99.90;;;;;;5089727;28;20149;-76
2022/08/15 08:29:00;;;;;;;20.45;18.35;;;24.60;99.90;;;;;;5090143;28;20048;-75
2022/08/15 08:31:38;;;;;;;21.35;19.15;;;24.70;99.90;;;;;;5061567;28;20052;-75
2022/08/15 08:34:09;;;;;;;;;;;24.80;99.90;;;;;;5090249;28;20097;-75
2022/08/15 08:37:07;;;;;;;22.40;17.35;;;25.00;99.90;;;;;;5088500;28;19993;-76
2022/08/15 08:39:35;;;;;;;20.73;17.60;;;25.20;99.90;;;;;;5089428;28;20512;-75
2022/08/15 08:42:17;;;;;;;19.45;16.38;;;25.50;99.90;;;;;;5090098;28;20047;-75
2022/08/15 08:44:55;;;;;;;18.40;16.38;;;25.60;99.90;;;;;;5089085;28;20078;-75
2022/08/15 08:47:43;;;;;;;18.05;16.08;;;26.10;99.90;;;;;;5089832;28;20044;-75
2022/08/15 08:50:28;;;;;;;20.17;15.75;;;26.40;99.90;;;;;;5088954;28;20044;-76
2022/08/15 08:53:29;;;;;;;17.05;14.65;;;26.60;99.90;;;;;;5089873;28;20932;-74
2022/08/15 08:56:06;;;;;;;20.85;12.70;;;26.80;99.90;;;;;;5067813;28;20076;-74
2022/08/15 08:58:48;;;;;;;14.07;12.38;;;27.10;98.50;;;;;;5089259;28;20587;-72
2022/08/15 09:01:23;;;;;;;16.27;13.05;;;27.30;94.20;;;;;;5081232;28;20173;-73
2022/08/15 09:03:56;;;;;;;13.52;12.23;;;27.40;94.80;;;;;;5074164;28;20044;-73
2022/08/15 09:06:29;;;;;;;18.80;13.73;;;27.70;94.50;;;;;;5078872;28;20048;-72
2022/08/15 09:09:07;;;;;;;15.18;13.40;;;28.00;93.20;;;;;;5089120;28;20711;-72
2022/08/15 09:11:45;;;;;;;15.23;13.77;;;28.30;90.90;;;;;;5072350;28;20047;-73
2022/08/15 09:14:23;;;;;;;13.52;11.93;;;28.40;89.20;;;;;;5080627;28;20091;-72
2022/08/15 09:16:52;;;;;;;12.88;11.57;;;28.70;85.70;;;;;;5091519;28;20052;-73
2022/08/15 09:19:27;;;;;;;13.13;11.75;;;28.90;84.40;;;;;;5086648;28;20611;-73
2022/08/15 09:21:53;;;;;;;13.57;11.80;;;29.20;81.60;;;;;;5083984;28;20098;-73
2022/08/15 09:24:20;;;;;;;12.85;11.75;;;29.40;80.50;;;;;;5088745;28;20582;-73
2022/08/15 09:26:59;;;;;;;12.10;10.90;;;29.50;76.20;;;;;;5088904;28;20108;-72
2022/08/15 09:29:37;;;;;;;11.98;10.95;;;29.60;72.20;;;;;;5088646;28;20121;-73
2022/08/15 09:32:20;;;;;;;13.60;12.23;;;29.80;69.90;;;;;;5082174;28;20059;-72
2022/08/15 09:35:07;;;;;;;14.10;12.70;;;29.80;70.70;;;;;;5085596;28;20044;-73
2022/08/15 09:38:00;;;;;;;14.32;12.10;;;29.80;71.50;;;;;;5082179;28;20074;-72
2022/08/15 09:40:32;;;;;;;14.50;12.77;;;29.70;71.40;;;;;;5085614;28;20059;-72
2022/08/15 09:43:17;;;;;;;14.50;13.15;;;29.50;72.30;;;;;;5083197;28;20417;-73
2022/08/15 09:45:52;;;;;;;13.50;12.30;;;29.50;72.50;;;;;;5087217;28;20051;-74
2022/08/15 09:48:43;;;;;;;14.40;12.85;;;29.60;68.00;;;;;;5086907;28;20955;-74
2022/08/15 09:51:28;;;;;;;15.48;13.23;;;29.50;65.40;;;;;;5084226;28;20093;-74
2022/08/15 09:54:05;;;;;;;16.10;14.50;;;29.80;67.50;;;;;;5080212;28;20104;-73
2022/08/15 09:56:35;;;;;;;18.75;14.13;;;29.90;67.30;;;;;;5089306;28;20040;-74
2022/08/15 09:59:21;;;;;;;16.60;14.68;;;29.80;68.40;;;;;;5083095;28;20501;-73
2022/08/15 10:02:16;;;;;;;14.73;13.07;;;29.90;66.80;;;;;;5083932;28;20044;-71
2022/08/15 10:04:47;;;;;;;13.93;12.73;;;30.10;61.80;;;;;;5084005;28;20581;-73
2022/08/15 10:07:13;;;;;;;13.93;12.55;;;30.20;63.20;;;;;;5084406;28;20036;-72
2022/08/15 10:10:01;;;;;;;15.90;14.25;;;30.10;62.70;;;;;;5087722;28;20094;-72
2022/08/15 10:12:27;;;;;;;15.68;14.02;;;30.10;61.00;;;;;;5082990;28;20047;-73
2022/08/15 10:14:53;;;;;;;18.02;13.30;;;29.90;63.20;;;;;;5086867;28;20052;-73
2022/08/15 10:17:27;;;;;;;16.63;13.30;;;29.90;63.70;;;;;;5093994;28;20416;-75
2022/08/15 10:19:54;;;;;;;15.05;13.43;;;29.90;63.20;;;;;;5087143;28;20054;-74
2022/08/15 10:22:24;;;;;;;16.33;14.73;;;29.90;63.00;;;;;;5086641;28;20052;-74
2022/08/15 10:25:15;;;;;;;41.13;17.65;;;29.90;63.90;;;;;;5086062;28;20169;-74
2022/08/15 10:27:56;;;;;;;53.45;18.63;;;29.90;65.30;;;;;;5067120;28;20048;-74
2022/08/15 10:30:26;;;;;;;20.88;18.02;;;29.80;65.30;;;;;;5084872;28;20060;-73
2022/08/15 10:32:53;;;;;;;45.22;21.02;;;29.70;66.40;;;;;;5086265;28;20044;-74
2022/08/15 10:35:36;;;;;;;104.20;24.10;;;29.50;66.80;;;;;;5091586;28;20555;-73
2022/08/15 10:38:07;;;;;;;36.70;19.17;;;29.30;67.40;;;;;;5080028;28;20054;-74
2022/08/15 10:41:13;;;;;;;39.92;17.85;;;29.20;68.10;;;;;;5086736;28;20044;-73
2022/08/15 10:43:43;;;;;;;26.02;22.80;;;29.20;68.50;;;;;;5087687;28;20127;-73
2022/08/15 10:46:22;;;;;;;24.17;20.50;;;28.90;68.80;;;;;;5086000;28;20075;-74
2022/08/15 10:49:08;;;;;;;31.10;20.98;;;28.80;69.00;;;;;;5086885;28;20052;-76
2022/08/15 10:51:43;;;;;;;21.92;19.60;;;28.80;69.20;;;;;;5085669;28;20044;-76
2022/08/15 10:54:59;;;;;;;25.27;18.77;;;28.70;69.50;;;;;;5087511;28;20071;-76
2022/08/15 10:57:34;;;;;;;25.17;22.25;;;28.70;69.70;;;;;;5050302;28;20519;-76
2022/08/15 11:00:01;;;;;;;25.20;22.58;;;28.60;69.60;;;;;;5050029;28;20440;-76
2022/08/15 11:02:39;;;;;;;26.05;23.33;;;28.50;69.00;;;;;;5079392;28;20046;-76
2022/08/15 11:05:09;;;;;;;21.25;19.35;;;28.60;68.90;;;;;;5076996;28;20056;-76
2022/08/15 11:07:40;;;;;;;23.98;20.40;;;28.50;69.20;;;;;;5087618;28;20077;-76
2022/08/15 11:10:14;;;;;;;23.88;19.55;;;28.60;69.70;;;;;;5087871;28;20044;-76
2022/08/15 11:12:43;;;;;;;23.92;21.25;;;28.70;69.30;;;;;;5087314;28;20135;-76
2022/08/15 11:15:26;;;;;;;34.08;20.80;;;28.70;68.40;;;;;;5086599;28;20052;-77
2022/08/15 11:18:04;;;;;;;19.83;17.70;;;28.80;68.40;;;;;;5077114;28;20047;-75
2022/08/15 11:20:45;;;;;;;34.42;20.30;;;28.70;66.90;;;;;;5086167;28;20101;-76
2022/08/15 11:23:27;;;;;;;32.40;20.08;;;28.80;64.90;;;;;;5082241;28;20082;-76
2022/08/15 11:25:56;;;;;;;28.48;22.58;;;28.80;65.90;;;;;;5070094;28;20051;-75
2022/08/15 11:28:29;;;;;;;23.13;19.83;;;28.80;66.40;;;;;;5088294;28;20071;-76
2022/08/15 11:31:17;;;;;;;26.08;23.35;;;28.80;67.10;;;;;;5081636;28;20962;-76
2022/08/15 11:33:46;;;;;;;21.17;18.85;;;28.70;67.70;;;;;;5080582;28;20056;-77
2022/08/15 11:36:17;;;;;;;25.90;19.27;;;28.70;68.30;;;;;;5088043;28;20048;-77
2022/08/15 11:38:55;;;;;;;29.20;21.15;;;28.70;69.00;;;;;;5087937;28;20735;-76
2022/08/15 11:41:26;;;;;;;21.17;19.08;;;28.60;69.50;;;;;;5088668;28;20537;-78
2022/08/15 11:43:54;;;;;;;26.48;18.15;;;28.70;69.70;;;;;;5089001;28;20044;-76
2022/08/15 11:46:22;;;;;;;49.17;21.30;;;28.70;69.90;;;;;;5098194;28;20101;-77
2022/08/15 11:48:52;;;;;;;38.75;20.45;;;28.60;70.60;;;;;;5090249;28;20051;-74
2022/08/15 11:51:26;;;;;;;27.23;20.63;;;28.60;71.20;;;;;;5092656;28;20055;-75
2022/08/15 11:54:12;;;;;;;55.90;25.80;;;28.60;71.80;;;;;;5092802;28;20053;-75
2022/08/15 11:56:59;;;;;;;50.47;28.40;;;28.60;72.60;;;;;;5090894;28;20056;-75
2022/08/15 11:59:38;;;;;;;31.20;27.25;;;28.50;73.00;;;;;;5092085;28;20048;-77
2022/08/15 12:02:11;;;;;;;26.50;23.70;;;28.60;73.40;;;;;;5090979;28;20140;-74
2022/08/15 12:04:43;;;;;;;26.92;23.52;;;28.60;73.80;;;;;;5086711;28;20103;-76
2022/08/15 12:07:29;;;;;;;34.30;29.45;;;28.70;73.60;;;;;;5085054;28;20044;-76
2022/08/15 12:10:03;;;;;;;31.05;27.85;;;28.60;73.40;;;;;;5073850;28;20091;-76
2022/08/15 12:12:44;;;;;;;25.73;22.75;;;28.50;74.10;;;;;;5078194;28;20033;-75
2022/08/15 12:15:14;;;;;;;24.75;21.13;;;28.60;73.80;;;;;;5088026;28;20069;-74
2022/08/15 12:18:11;;;;;;;32.97;24.50;;;28.70;73.50;;;;;;5082185;28;20494;-75
2022/08/15 12:21:03;;;;;;;;;;;28.60;72.60;;;;;;5081752;28;20048;-74
2022/08/15 12:23:34;;;;;;;33.08;25.52;;;28.60;73.60;;;;;;5091387;28;19973;-75
2022/08/15 12:26:06;;;;;;;30.80;26.38;;;28.60;74.00;;;;;;5085308;28;20076;-75
2022/08/15 12:28:35;;;;;;;31.17;25.25;;;28.60;73.90;;;;;;5087668;28;20048;-75
2022/08/15 12:31:25;;;;;;;28.95;22.55;;;28.60;73.80;;;;;;5080973;28;20387;-75
2022/08/15 12:34:14;;;;;;;39.70;26.42;;;28.60;74.20;;;;;;5085957;28;20048;-76
2022/08/15 12:36:43;;;;;;;38.42;27.50;;;28.60;74.70;;;;;;5076733;28;20627;-76
2022/08/15 12:39:11;;;;;;;29.85;24.13;;;28.60;74.30;;;;;;5068256;28;20128;-76
2022/08/15 12:41:39;;;;;;;36.03;27.95;;;28.80;74.10;;;;;;5083061;28;20097;-75
2022/08/15 12:44:27;;;;;;;47.38;27.20;;;28.80;73.30;;;;;;5085252;28;20051;-75
2022/08/15 12:46:54;;;;;;;28.58;24.90;;;28.90;74.10;;;;;;5085962;28;20072;-76
2022/08/15 12:49:20;;;;;;;30.67;23.13;;;28.80;73.60;;;;;;5085549;28;20048;-76
2022/08/15 12:51:46;;;;;;;31.75;25.63;;;28.80;73.80;;;;;;5100060;28;20048;-75
2022/08/15 12:54:12;;;;;;;29.00;25.67;;;28.80;73.80;;;;;;5087735;28;20403;-74
2022/08/15 12:56:40;;;;;;;40.05;28.50;;;28.80;74.40;;;;;;5083319;28;20791;-74
2022/08/15 12:59:06;;;;;;;36.80;26.13;;;28.70;74.90;;;;;;5097020;28;20527;-76
2022/08/15 13:01:33;;;;;;;26.25;23.58;;;28.70;75.70;;;;;;5088522;28;20075;-75
2022/08/15 13:04:04;;;;;;;;;;;28.70;76.20;;;;;;5091076;28;20044;-76